sensor_id;sensor_type;location;lat;lon;timestamp;pressure;altitude;pressure_sealevel;temperature
27715;BMP280;16051;53.024;8.630;2023-03-01T00:02:01;103185.75;;;-0.33
27715;BMP280;16051;53.024;8.630;2023-03-01T00:06:05;103184.34;;;-0.39
27715;BMP280;16051;53.024;8.630;2023-03-01T00:10:09;103179.47;;;-0.46
27715;BMP280;16051;53.024;8.630;2023-03-01T00:14:12;103179.22;;;-0.53
27715;BMP280;16051;53.024;8.630;2023-03-01T00:18:15;103176.88;;;-0.55
27715;BMP280;16051;53.024;8.630;2023-03-01T00:22:17;103176.94;;;-0.63
27715;BMP280;16051;53.024;8.630;2023-03-01T00:26:21;103173.13;;;-0.62
27715;BMP280;16051;53.024;8.630;2023-03-01T00:30:24;103167.56;;;-0.66
27715;BMP280;16051;53.024;8.630;2023-03-01T00:34:27;103169.00;;;-0.68
27715;BMP280;16051;53.024;8.630;2023-03-01T00:38:30;103170.47;;;-0.71
27715;BMP280;16051;53.024;8.630;2023-03-01T00:42:32;103165.59;;;-0.77
27715;BMP280;16051;53.024;8.630;2023-03-01T00:46:34;103163.75;;;-0.85
27715;BMP280;16051;53.024;8.630;2023-03-01T00:50:56;103161.19;;;-0.82
27715;BMP280;16051;53.024;8.630;2023-03-01T00:54:58;103170.19;;;-0.90
27715;BMP280;16051;53.024;8.630;2023-03-01T00:59:01;103171.53;;;-0.96
27715;BMP280;16051;53.024;8.630;2023-03-01T01:03:08;103166.66;;;-1.03
27715;BMP280;16051;53.024;8.630;2023-03-01T01:07:12;103161.53;;;-1.04
27715;BMP280;16051;53.024;8.630;2023-03-01T01:11:15;103160.28;;;-1.07
27715;BMP280;16051;53.024;8.630;2023-03-01T01:15:18;103156.91;;;-1.04
27715;BMP280;16051;53.024;8.630;2023-03-01T01:19:20;103164.66;;;-1.14
27715;BMP280;16051;53.024;8.630;2023-03-01T01:23:31;103163.47;;;-1.25
27715;BMP280;16051;53.024;8.630;2023-03-01T01:27:33;103148.81;;;-1.24
27715;BMP280;16051;53.024;8.630;2023-03-01T01:31:38;103149.13;;;-1.26
27715;BMP280;16051;53.024;8.630;2023-03-01T01:35:40;103148.19;;;-1.30
27715;BMP280;16051;53.024;8.630;2023-03-01T01:39:44;103132.69;;;-1.41
27715;BMP280;16051;53.024;8.630;2023-03-01T01:44:17;103132.06;;;-1.47
27715;BMP280;16051;53.024;8.630;2023-03-01T01:48:22;103124.28;;;-1.48
27715;BMP280;16051;53.024;8.630;2023-03-01T01:52:29;103129.56;;;-1.52
27715;BMP280;16051;53.024;8.630;2023-03-01T01:56:33;103123.00;;;-1.51
27715;BMP280;16051;53.024;8.630;2023-03-01T02:00:36;103124.75;;;-1.46
27715;BMP280;16051;53.024;8.630;2023-03-01T02:04:39;103109.66;;;-1.56
27715;BMP280;16051;53.024;8.630;2023-03-01T02:08:42;103111.59;;;-1.57
27715;BMP280;16051;53.024;8.630;2023-03-01T02:12:49;103100.94;;;-1.62
27715;BMP280;16051;53.024;8.630;2023-03-01T02:16:52;103098.88;;;-1.65
27715;BMP280;16051;53.024;8.630;2023-03-01T02:21:17;103095.72;;;-1.67
27715;BMP280;16051;53.024;8.630;2023-03-01T02:25:36;103096.16;;;-1.65
27715;BMP280;16051;53.024;8.630;2023-03-01T02:29:41;103094.31;;;-1.73
27715;BMP280;16051;53.024;8.630;2023-03-01T02:33:46;103093.06;;;-1.75
27715;BMP280;16051;53.024;8.630;2023-03-01T02:38:01;103085.13;;;-1.80
27715;BMP280;16051;53.024;8.630;2023-03-01T02:42:05;103101.19;;;-1.96
27715;BMP280;16051;53.024;8.630;2023-03-01T02:46:16;103100.56;;;-2.02
27715;BMP280;16051;53.024;8.630;2023-03-01T02:50:46;103096.13;;;-2.06
27715;BMP280;16051;53.024;8.630;2023-03-01T02:55:01;103091.50;;;-2.06
27715;BMP280;16051;53.024;8.630;2023-03-01T02:59:05;103084.09;;;-2.17
27715;BMP280;16051;53.024;8.630;2023-03-01T03:03:09;103091.44;;;-2.18
27715;BMP280;16051;53.024;8.630;2023-03-01T03:07:12;103105.25;;;-2.11
27715;BMP280;16051;53.024;8.630;2023-03-01T03:11:14;103097.44;;;-2.12
27715;BMP280;16051;53.024;8.630;2023-03-01T03:15:17;103086.81;;;-2.17
27715;BMP280;16051;53.024;8.630;2023-03-01T03:19:20;103100.84;;;-2.24
27715;BMP280;16051;53.024;8.630;2023-03-01T03:23:23;103095.16;;;-2.31
27715;BMP280;16051;53.024;8.630;2023-03-01T03:27:25;103084.00;;;-2.29
27715;BMP280;16051;53.024;8.630;2023-03-01T03:31:27;103088.09;;;-2.23
27715;BMP280;16051;53.024;8.630;2023-03-01T03:35:37;103080.19;;;-2.28
27715;BMP280;16051;53.024;8.630;2023-03-01T03:39:39;103067.94;;;-2.34
27715;BMP280;16051;53.024;8.630;2023-03-01T03:43:42;103062.88;;;-2.44
27715;BMP280;16051;53.024;8.630;2023-03-01T03:47:45;103061.94;;;-2.49
27715;BMP280;16051;53.024;8.630;2023-03-01T03:52:28;103063.41;;;-2.51
27715;BMP280;16051;53.024;8.630;2023-03-01T03:56:31;103051.78;;;-2.52
27715;BMP280;16051;53.024;8.630;2023-03-01T04:00:35;103044.47;;;-2.51
27715;BMP280;16051;53.024;8.630;2023-03-01T04:04:37;103040.00;;;-2.56
27715;BMP280;16051;53.024;8.630;2023-03-01T04:08:41;103039.34;;;-2.53
27715;BMP280;16051;53.024;8.630;2023-03-01T04:12:43;103042.56;;;-2.59
27715;BMP280;16051;53.024;8.630;2023-03-01T04:16:46;103045.63;;;-2.61
27715;BMP280;16051;53.024;8.630;2023-03-01T04:20:58;103039.06;;;-2.60
27715;BMP280;16051;53.024;8.630;2023-03-01T04:25:01;103037.31;;;-2.56
27715;BMP280;16051;53.024;8.630;2023-03-01T04:29:05;103037.16;;;-2.59
27715;BMP280;16051;53.024;8.630;2023-03-01T04:33:09;103028.44;;;-2.65
27715;BMP280;16051;53.024;8.630;2023-03-01T04:37:12;103022.41;;;-2.70
27715;BMP280;16051;53.024;8.630;2023-03-01T04:41:38;103022.91;;;-2.77
27715;BMP280;16051;53.024;8.630;2023-03-01T04:45:41;103021.19;;;-2.81
27715;BMP280;16051;53.024;8.630;2023-03-01T04:49:43;103024.53;;;-2.76
27715;BMP280;16051;53.024;8.630;2023-03-01T04:53:45;103021.97;;;-2.81
27715;BMP280;16051;53.024;8.630;2023-03-01T04:57:49;103019.63;;;-2.82
27715;BMP280;16051;53.024;8.630;2023-03-01T05:01:52;103016.41;;;-2.84
27715;BMP280;16051;53.024;8.630;2023-03-01T05:05:59;103026.94;;;-2.83
27715;BMP280;16051;53.024;8.630;2023-03-01T05:10:01;103011.22;;;-2.89
27715;BMP280;16051;53.024;8.630;2023-03-01T05:14:07;103002.28;;;-2.90
27715;BMP280;16051;53.024;8.630;2023-03-01T05:18:23;103019.78;;;-2.87
27715;BMP280;16051;53.024;8.630;2023-03-01T05:22:26;103019.63;;;-2.91
27715;BMP280;16051;53.024;8.630;2023-03-01T05:26:28;103025.34;;;-2.92
27715;BMP280;16051;53.024;8.630;2023-03-01T05:30:33;103019.16;;;-2.93
27715;BMP280;16051;53.024;8.630;2023-03-01T05:34:36;103021.72;;;-2.97
27715;BMP280;16051;53.024;8.630;2023-03-01T05:38:39;103015.84;;;-2.99
27715;BMP280;16051;53.024;8.630;2023-03-01T05:42:55;103020.44;;;-2.99
27715;BMP280;16051;53.024;8.630;2023-03-01T05:46:58;103026.97;;;-3.00
27715;BMP280;16051;53.024;8.630;2023-03-01T05:51:01;103028.72;;;-2.95
27715;BMP280;16051;53.024;8.630;2023-03-01T05:55:04;103023.16;;;-2.99
27715;BMP280;16051;53.024;8.630;2023-03-01T05:59:08;103026.38;;;-3.06
27715;BMP280;16051;53.024;8.630;2023-03-01T06:03:14;103013.00;;;-3.02
27715;BMP280;16051;53.024;8.630;2023-03-01T06:07:17;103012.53;;;-3.04
27715;BMP280;16051;53.024;8.630;2023-03-01T06:11:19;103026.38;;;-3.06
27715;BMP280;16051;53.024;8.630;2023-03-01T06:15:22;103025.63;;;-3.15
27715;BMP280;16051;53.024;8.630;2023-03-01T06:19:25;103018.13;;;-3.18
27715;BMP280;16051;53.024;8.630;2023-03-01T06:23:45;103023.53;;;-3.18
27715;BMP280;16051;53.024;8.630;2023-03-01T06:27:48;103029.72;;;-3.17
27715;BMP280;16051;53.024;8.630;2023-03-01T06:31:50;103023.53;;;-3.18
27715;BMP280;16051;53.024;8.630;2023-03-01T06:35:56;103024.31;;;-3.17
27715;BMP280;16051;53.024;8.630;2023-03-01T06:39:58;103023.06;;;-3.11
27715;BMP280;16051;53.024;8.630;2023-03-01T06:44:05;103030.53;;;-3.08
27715;BMP280;16051;53.024;8.630;2023-03-01T06:48:08;103023.06;;;-3.11
27715;BMP280;16051;53.024;8.630;2023-03-01T06:52:11;103034.47;;;-3.06
27715;BMP280;16051;53.024;8.630;2023-03-01T06:56:13;103039.06;;;-2.97
27715;BMP280;16051;53.024;8.630;2023-03-01T07:00:17;103040.47;;;-2.91
27715;BMP280;16051;53.024;8.630;2023-03-01T07:04:20;103044.59;;;-2.85
27715;BMP280;16051;53.024;8.630;2023-03-01T07:08:25;103036.00;;;-2.79
27715;BMP280;16051;53.024;8.630;2023-03-01T07:12:27;103039.59;;;-2.66
27715;BMP280;16051;53.024;8.630;2023-03-01T07:16:29;103044.31;;;-2.55
27715;BMP280;16051;53.024;8.630;2023-03-01T07:20:49;103047.28;;;-2.39
27715;BMP280;16051;53.024;8.630;2023-03-01T07:24:53;103048.78;;;-2.29
27715;BMP280;16051;53.024;8.630;2023-03-01T07:28:55;103045.66;;;-2.11
27715;BMP280;16051;53.024;8.630;2023-03-01T07:33:06;103036.47;;;-1.98
27715;BMP280;16051;53.024;8.630;2023-03-01T07:37:09;103032.06;;;-1.81
27715;BMP280;16051;53.024;8.630;2023-03-01T07:41:13;103036.16;;;-1.75
27715;BMP280;16051;53.024;8.630;2023-03-01T07:45:15;103040.84;;;-1.64
27715;BMP280;16051;53.024;8.630;2023-03-01T07:49:17;103037.91;;;-1.59
27715;BMP280;16051;53.024;8.630;2023-03-01T07:53:19;103039.47;;;-1.37
27715;BMP280;16051;53.024;8.630;2023-03-01T07:57:23;103031.28;;;-1.16
27715;BMP280;16051;53.024;8.630;2023-03-01T08:01:25;103042.38;;;-1.09
27715;BMP280;16051;53.024;8.630;2023-03-01T08:05:28;103034.97;;;-0.88
27715;BMP280;16051;53.024;8.630;2023-03-01T08:09:31;103033.16;;;-0.72
27715;BMP280;16051;53.024;8.630;2023-03-01T08:13:34;103023.22;;;-0.43
27715;BMP280;16051;53.024;8.630;2023-03-01T08:17:37;103023.97;;;-0.31
27715;BMP280;16051;53.024;8.630;2023-03-01T08:21:39;103017.28;;;-0.21
27715;BMP280;16051;53.024;8.630;2023-03-01T08:25:41;103032.19;;;-0.03
27715;BMP280;16051;53.024;8.630;2023-03-01T08:29:45;103027.84;;;0.08
27715;BMP280;16051;53.024;8.630;2023-03-01T08:33:49;103031.09;;;0.26
27715;BMP280;16051;53.024;8.630;2023-03-01T08:38:06;103021.06;;;0.42
27715;BMP280;16051;53.024;8.630;2023-03-01T08:42:08;103021.31;;;0.65
27715;BMP280;16051;53.024;8.630;2023-03-01T08:46:13;103025.53;;;0.78
27715;BMP280;16051;53.024;8.630;2023-03-01T08:50:15;103011.59;;;0.95
27715;BMP280;16051;53.024;8.630;2023-03-01T08:54:21;103010.28;;;1.20
27715;BMP280;16051;53.024;8.630;2023-03-01T08:58:23;103010.53;;;1.31
27715;BMP280;16051;53.024;8.630;2023-03-01T09:02:27;102994.09;;;1.43
27715;BMP280;16051;53.024;8.630;2023-03-01T09:06:30;102990.97;;;1.60
27715;BMP280;16051;53.024;8.630;2023-03-01T09:10:37;102983.84;;;1.71
27715;BMP280;16051;53.024;8.630;2023-03-01T09:14:40;102993.47;;;1.84
27715;BMP280;16051;53.024;8.630;2023-03-01T09:18:45;102993.94;;;2.06
27715;BMP280;16051;53.024;8.630;2023-03-01T09:23:08;102999.88;;;2.30
27715;BMP280;16051;53.024;8.630;2023-03-01T09:27:11;102996.75;;;2.51
27715;BMP280;16051;53.024;8.630;2023-03-01T09:31:17;103001.94;;;2.79
27715;BMP280;16051;53.024;8.630;2023-03-01T09:35:21;102998.59;;;3.12
27715;BMP280;16051;53.024;8.630;2023-03-01T09:39:30;103002.41;;;3.30
27715;BMP280;16051;53.024;8.630;2023-03-01T09:43:43;102994.75;;;3.65
27715;BMP280;16051;53.024;8.630;2023-03-01T09:47:46;102995.69;;;4.06
27715;BMP280;16051;53.024;8.630;2023-03-01T09:52:03;102997.31;;;4.44
27715;BMP280;16051;53.024;8.630;2023-03-01T09:56:18;102996.16;;;4.85
27715;BMP280;16051;53.024;8.630;2023-03-01T10:00:33;103009.53;;;5.38
27715;BMP280;16051;53.024;8.630;2023-03-01T10:04:45;103005.88;;;5.81
27715;BMP280;16051;53.024;8.630;2023-03-01T10:08:56;102999.78;;;6.13
27715;BMP280;16051;53.024;8.630;2023-03-01T10:13:17;102987.69;;;6.31
27715;BMP280;16051;53.024;8.630;2023-03-01T10:17:30;102988.56;;;6.64
27715;BMP280;16051;53.024;8.630;2023-03-01T10:21:48;102992.13;;;7.10
27715;BMP280;16051;53.024;8.630;2023-03-01T10:26:26;102990.16;;;7.35
27715;BMP280;16051;53.024;8.630;2023-03-01T10:30:37;102989.69;;;7.69
27715;BMP280;16051;53.024;8.630;2023-03-01T10:34:40;102978.91;;;8.17
27715;BMP280;16051;53.024;8.630;2023-03-01T10:38:52;102984.63;;;8.54
27715;BMP280;16051;53.024;8.630;2023-03-01T10:43:02;102984.06;;;8.80
27715;BMP280;16051;53.024;8.630;2023-03-01T10:47:08;102984.72;;;8.99
27715;BMP280;16051;53.024;8.630;2023-03-01T10:51:18;102975.22;;;9.48
27715;BMP280;16051;53.024;8.630;2023-03-01T10:55:30;102978.78;;;9.45
27715;BMP280;16051;53.024;8.630;2023-03-01T10:59:37;102975.34;;;10.05
27715;BMP280;16051;53.024;8.630;2023-03-01T11:03:39;102975.78;;;10.33
27715;BMP280;16051;53.024;8.630;2023-03-01T11:07:53;102972.72;;;10.78
27715;BMP280;16051;53.024;8.630;2023-03-01T11:12:00;102970.47;;;11.19
27715;BMP280;16051;53.024;8.630;2023-03-01T11:16:08;102973.59;;;11.45
27715;BMP280;16051;53.024;8.630;2023-03-01T11:20:25;102963.13;;;10.86
27715;BMP280;16051;53.024;8.630;2023-03-01T11:24:34;102955.13;;;10.68
27715;BMP280;16051;53.024;8.630;2023-03-01T11:28:50;102947.72;;;10.89
27715;BMP280;16051;53.024;8.630;2023-03-01T11:33:08;102943.34;;;11.34
27715;BMP280;16051;53.024;8.630;2023-03-01T11:37:35;102939.59;;;11.44
27715;BMP280;16051;53.024;8.630;2023-03-01T11:41:40;102939.88;;;11.50
27715;BMP280;16051;53.024;8.630;2023-03-01T11:46:18;102932.16;;;11.18
27715;BMP280;16051;53.024;8.630;2023-03-01T11:50:35;102921.66;;;10.86
27715;BMP280;16051;53.024;8.630;2023-03-01T11:54:57;102930.97;;;11.19
27715;BMP280;16051;53.024;8.630;2023-03-01T12:04:11;102917.22;;;11.35
27715;BMP280;16051;53.024;8.630;2023-03-01T12:08:26;102897.09;;;10.92
27715;BMP280;16051;53.024;8.630;2023-03-01T12:12:47;102901.59;;;10.59
27715;BMP280;16051;53.024;8.630;2023-03-01T12:17:16;102910.22;;;10.38
27715;BMP280;16051;53.024;8.630;2023-03-01T12:21:42;102898.81;;;10.59
27715;BMP280;16051;53.024;8.630;2023-03-01T12:25:56;102898.69;;;11.12
27715;BMP280;16051;53.024;8.630;2023-03-01T12:30:17;102888.22;;;11.00
27715;BMP280;16051;53.024;8.630;2023-03-01T12:34:44;102878.63;;;10.85
27715;BMP280;16051;53.024;8.630;2023-03-01T12:38:59;102880.16;;;11.09
27715;BMP280;16051;53.024;8.630;2023-03-01T12:43:22;102864.88;;;11.24
27715;BMP280;16051;53.024;8.630;2023-03-01T12:47:50;102867.53;;;10.89
27715;BMP280;16051;53.024;8.630;2023-03-01T12:51:59;102862.06;;;10.85
27715;BMP280;16051;53.024;8.630;2023-03-01T12:56:07;102857.25;;;10.66
27715;BMP280;16051;53.024;8.630;2023-03-01T13:00:28;102856.75;;;10.71
27715;BMP280;16051;53.024;8.630;2023-03-01T13:05:00;102847.50;;;10.81
27715;BMP280;16051;53.024;8.630;2023-03-01T13:09:20;102850.03;;;10.49
27715;BMP280;16051;53.024;8.630;2023-03-01T13:13:28;102850.63;;;10.83
27715;BMP280;16051;53.024;8.630;2023-03-01T13:17:41;102843.91;;;11.04
27715;BMP280;16051;53.024;8.630;2023-03-01T13:21:47;102841.06;;;11.07
27715;BMP280;16051;53.024;8.630;2023-03-01T13:26:12;102827.88;;;11.54
27715;BMP280;16051;53.024;8.630;2023-03-01T13:30:41;102825.00;;;11.42
27715;BMP280;16051;53.024;8.630;2023-03-01T13:34:52;102829.25;;;11.46
27715;BMP280;16051;53.024;8.630;2023-03-01T13:39:29;102821.00;;;11.62
27715;BMP280;16051;53.024;8.630;2023-03-01T13:43:31;102817.03;;;11.63
27715;BMP280;16051;53.024;8.630;2023-03-01T13:47:35;102804.38;;;11.62
27715;BMP280;16051;53.024;8.630;2023-03-01T13:51:39;102801.19;;;12.16
27715;BMP280;16051;53.024;8.630;2023-03-01T13:55:44;102801.13;;;12.03
27715;BMP280;16051;53.024;8.630;2023-03-01T13:59:47;102800.69;;;12.37
27715;BMP280;16051;53.024;8.630;2023-03-01T14:03:50;102787.94;;;12.40
27715;BMP280;16051;53.024;8.630;2023-03-01T14:07:53;102786.75;;;12.41
27715;BMP280;16051;53.024;8.630;2023-03-01T14:12:25;102786.06;;;12.04
27715;BMP280;16051;53.024;8.630;2023-03-01T14:16:41;102777.03;;;11.84
27715;BMP280;16051;53.024;8.630;2023-03-01T14:20:59;102771.00;;;11.69
27715;BMP280;16051;53.024;8.630;2023-03-01T14:25:17;102767.69;;;11.22
27715;BMP280;16051;53.024;8.630;2023-03-01T14:29:26;102752.03;;;11.52
27715;BMP280;16051;53.024;8.630;2023-03-01T14:33:36;102755.56;;;11.52
27715;BMP280;16051;53.024;8.630;2023-03-01T14:37:40;102746.78;;;11.57
27715;BMP280;16051;53.024;8.630;2023-03-01T14:42:12;102736.38;;;11.45
27715;BMP280;16051;53.024;8.630;2023-03-01T14:46:22;102722.88;;;11.47
27715;BMP280;16051;53.024;8.630;2023-03-01T14:50:28;102726.78;;;11.50
27715;BMP280;16051;53.024;8.630;2023-03-01T14:54:41;102725.78;;;11.40
27715;BMP280;16051;53.024;8.630;2023-03-01T14:58:46;102721.16;;;10.98
27715;BMP280;16051;53.024;8.630;2023-03-01T15:03:14;102707.91;;;10.89
27715;BMP280;16051;53.024;8.630;2023-03-01T15:07:19;102704.72;;;10.71
27715;BMP280;16051;53.024;8.630;2023-03-01T15:11:27;102692.47;;;10.72
27715;BMP280;16051;53.024;8.630;2023-03-01T15:15:37;102692.34;;;10.59
27715;BMP280;16051;53.024;8.630;2023-03-01T15:20:05;102687.00;;;10.49
27715;BMP280;16051;53.024;8.630;2023-03-01T15:24:20;102676.34;;;10.27
27715;BMP280;16051;53.024;8.630;2023-03-01T15:28:27;102681.16;;;10.23
27715;BMP280;16051;53.024;8.630;2023-03-01T15:32:35;102678.81;;;10.22
27715;BMP280;16051;53.024;8.630;2023-03-01T15:36:43;102673.47;;;10.34
27715;BMP280;16051;53.024;8.630;2023-03-01T15:40:50;102674.28;;;10.08
27715;BMP280;16051;53.024;8.630;2023-03-01T15:45:21;102669.56;;;9.85
27715;BMP280;16051;53.024;8.630;2023-03-01T15:49:38;102669.81;;;9.95
27715;BMP280;16051;53.024;8.630;2023-03-01T15:53:41;102659.91;;;9.97
27715;BMP280;16051;53.024;8.630;2023-03-01T15:58:02;102661.63;;;9.87
27715;BMP280;16051;53.024;8.630;2023-03-01T16:02:09;102659.28;;;9.86
27715;BMP280;16051;53.024;8.630;2023-03-01T16:06:16;102656.94;;;9.84
27715;BMP280;16051;53.024;8.630;2023-03-01T16:10:18;102665.66;;;9.83
27715;BMP280;16051;53.024;8.630;2023-03-01T16:14:21;102658.41;;;9.66
27715;BMP280;16051;53.024;8.630;2023-03-01T16:18:23;102648.84;;;9.51
27715;BMP280;16051;53.024;8.630;2023-03-01T16:22:54;102647.38;;;9.43
27715;BMP280;16051;53.024;8.630;2023-03-01T16:26:56;102641.38;;;9.21
27715;BMP280;16051;53.024;8.630;2023-03-01T16:30:58;102649.72;;;9.17
27715;BMP280;16051;53.024;8.630;2023-03-01T16:35:02;102645.59;;;9.02
27715;BMP280;16051;53.024;8.630;2023-03-01T16:39:05;102659.44;;;8.65
27715;BMP280;16051;53.024;8.630;2023-03-01T16:43:08;102653.97;;;8.61
27715;BMP280;16051;53.024;8.630;2023-03-01T16:47:11;102653.59;;;8.59
27715;BMP280;16051;53.024;8.630;2023-03-01T16:51:14;102661.28;;;8.41
27715;BMP280;16051;53.024;8.630;2023-03-01T16:55:17;102659.25;;;8.04
27715;BMP280;16051;53.024;8.630;2023-03-01T16:59:36;102649.13;;;7.94
27715;BMP280;16051;53.024;8.630;2023-03-01T17:03:39;102653.59;;;7.81
27715;BMP280;16051;53.024;8.630;2023-03-01T17:07:41;102665.44;;;7.71
27715;BMP280;16051;53.024;8.630;2023-03-01T17:11:58;102667.44;;;7.70
27715;BMP280;16051;53.024;8.630;2023-03-01T17:16:04;102671.81;;;7.61
27715;BMP280;16051;53.024;8.630;2023-03-01T17:20:08;102665.22;;;7.48
27715;BMP280;16051;53.024;8.630;2023-03-01T17:24:52;102677.44;;;7.39
27715;BMP280;16051;53.024;8.630;2023-03-01T17:28:56;102684.59;;;7.30
27715;BMP280;16051;53.024;8.630;2023-03-01T17:33:07;102681.13;;;7.15
27715;BMP280;16051;53.024;8.630;2023-03-01T17:37:10;102688.59;;;7.15
27715;BMP280;16051;53.024;8.630;2023-03-01T17:41:12;102693.72;;;7.09
27715;BMP280;16051;53.024;8.630;2023-03-01T17:45:18;102697.34;;;6.88
27715;BMP280;16051;53.024;8.630;2023-03-01T17:49:21;102696.63;;;6.70
27715;BMP280;16051;53.024;8.630;2023-03-01T17:53:26;102697.44;;;6.60
27715;BMP280;16051;53.024;8.630;2023-03-01T17:57:28;102710.00;;;6.65
27715;BMP280;16051;53.024;8.630;2023-03-01T18:01:32;102704.50;;;6.58
27715;BMP280;16051;53.024;8.630;2023-03-01T18:05:36;102705.69;;;6.57
27715;BMP280;16051;53.024;8.630;2023-03-01T18:09:38;102702.19;;;6.42
27715;BMP280;16051;53.024;8.630;2023-03-01T18:13:48;102713.56;;;6.37
27715;BMP280;16051;53.024;8.630;2023-03-01T18:17:55;102709.28;;;6.22
27715;BMP280;16051;53.024;8.630;2023-03-01T18:22:00;102710.84;;;6.19
27715;BMP280;16051;53.024;8.630;2023-03-01T18:26:06;102722.59;;;6.09
27715;BMP280;16051;53.024;8.630;2023-03-01T18:30:13;102714.00;;;6.07
27715;BMP280;16051;53.024;8.630;2023-03-01T18:34:25;102707.69;;;5.85
27715;BMP280;16051;53.024;8.630;2023-03-01T18:38:28;102706.91;;;5.78
27715;BMP280;16051;53.024;8.630;2023-03-01T18:42:31;102717.47;;;5.72
27715;BMP280;16051;53.024;8.630;2023-03-01T18:46:33;102719.38;;;5.58
27715;BMP280;16051;53.024;8.630;2023-03-01T18:50:38;102724.84;;;5.51
27715;BMP280;16051;53.024;8.630;2023-03-01T18:54:40;102723.97;;;5.18
27715;BMP280;16051;53.024;8.630;2023-03-01T18:58:42;102724.31;;;4.99
27715;BMP280;16051;53.024;8.630;2023-03-01T19:02:44;102718.03;;;4.91
27715;BMP280;16051;53.024;8.630;2023-03-01T19:06:48;102718.34;;;4.83
27715;BMP280;16051;53.024;8.630;2023-03-01T19:11:00;102725.66;;;4.58
27715;BMP280;16051;53.024;8.630;2023-03-01T19:15:04;102727.13;;;4.41
27715;BMP280;16051;53.024;8.630;2023-03-01T19:19:09;102738.56;;;4.06
27715;BMP280;16051;53.024;8.630;2023-03-01T19:23:12;102731.00;;;3.89
27715;BMP280;16051;53.024;8.630;2023-03-01T19:27:16;102743.03;;;3.81
27715;BMP280;16051;53.024;8.630;2023-03-01T19:31:21;102739.19;;;3.89
27715;BMP280;16051;53.024;8.630;2023-03-01T19:35:25;102739.75;;;3.65
27715;BMP280;16051;53.024;8.630;2023-03-01T19:40:00;102743.31;;;3.69
27715;BMP280;16051;53.024;8.630;2023-03-01T19:44:03;102749.03;;;3.57
27715;BMP280;16051;53.024;8.630;2023-03-01T19:48:06;102760.25;;;3.48
27715;BMP280;16051;53.024;8.630;2023-03-01T19:52:08;102761.13;;;3.56
27715;BMP280;16051;53.024;8.630;2023-03-01T19:56:28;102769.34;;;3.59
27715;BMP280;16051;53.024;8.630;2023-03-01T20:00:31;102759.94;;;3.53
27715;BMP280;16051;53.024;8.630;2023-03-01T20:04:33;102758.53;;;3.36
27715;BMP280;16051;53.024;8.630;2023-03-01T20:08:35;102756.94;;;3.32
27715;BMP280;16051;53.024;8.630;2023-03-01T20:12:40;102757.28;;;3.27
27715;BMP280;16051;53.024;8.630;2023-03-01T20:16:42;102754.22;;;3.32
27715;BMP280;16051;53.024;8.630;2023-03-01T20:20:48;102760.53;;;3.36
27715;BMP280;16051;53.024;8.630;2023-03-01T20:24:50;102764.56;;;3.49
27715;BMP280;16051;53.024;8.630;2023-03-01T20:28:55;102753.44;;;3.31
27715;BMP280;16051;53.024;8.630;2023-03-01T20:32:59;102762.00;;;3.30
27715;BMP280;16051;53.024;8.630;2023-03-01T20:37:03;102770.31;;;3.40
27715;BMP280;16051;53.024;8.630;2023-03-01T20:41:07;102769.13;;;3.38
27715;BMP280;16051;53.024;8.630;2023-03-01T20:45:11;102772.41;;;3.51
27715;BMP280;16051;53.024;8.630;2023-03-01T20:49:13;102771.59;;;3.50
27715;BMP280;16051;53.024;8.630;2023-03-01T20:53:16;102770.69;;;3.39
27715;BMP280;16051;53.024;8.630;2023-03-01T20:57:52;102758.19;;;3.38
27715;BMP280;16051;53.024;8.630;2023-03-01T21:01:55;102769.75;;;3.24
27715;BMP280;16051;53.024;8.630;2023-03-01T21:06:00;102768.25;;;3.30
27715;BMP280;16051;53.024;8.630;2023-03-01T21:10:10;102764.75;;;3.33
27715;BMP280;16051;53.024;8.630;2023-03-01T21:14:12;102750.28;;;3.29
27715;BMP280;16051;53.024;8.630;2023-03-01T21:18:19;102764.88;;;3.44
27715;BMP280;16051;53.024;8.630;2023-03-01T21:22:21;102749.50;;;3.29
27715;BMP280;16051;53.024;8.630;2023-03-01T21:26:26;102749.56;;;3.32
27715;BMP280;16051;53.024;8.630;2023-03-01T21:30:28;102758.16;;;3.34
27715;BMP280;16051;53.024;8.630;2023-03-01T21:34:34;102748.44;;;3.40
27715;BMP280;16051;53.024;8.630;2023-03-01T21:38:39;102752.75;;;3.41
27715;BMP280;16051;53.024;8.630;2023-03-01T21:42:43;102751.94;;;3.37
27715;BMP280;16051;53.024;8.630;2023-03-01T21:46:47;102753.50;;;3.38
27715;BMP280;16051;53.024;8.630;2023-03-01T21:50:55;102739.81;;;3.35
27715;BMP280;16051;53.024;8.630;2023-03-01T21:54:58;102746.44;;;3.34
27715;BMP280;16051;53.024;8.630;2023-03-01T21:59:10;102745.75;;;3.44
27715;BMP280;16051;53.024;8.630;2023-03-01T22:03:13;102742.66;;;3.45
27715;BMP280;16051;53.024;8.630;2023-03-01T22:07:17;102744.25;;;3.46
27715;BMP280;16051;53.024;8.630;2023-03-01T22:11:20;102743.34;;;3.35
27715;BMP280;16051;53.024;8.630;2023-03-01T22:15:53;102730.53;;;3.43
27715;BMP280;16051;53.024;8.630;2023-03-01T22:19:55;102742.59;;;3.38
27715;BMP280;16051;53.024;8.630;2023-03-01T22:23:59;102739.34;;;3.29
27715;BMP280;16051;53.024;8.630;2023-03-01T22:28:13;102745.94;;;3.25
27715;BMP280;16051;53.024;8.630;2023-03-01T22:32:16;102743.97;;;3.22
27715;BMP280;16051;53.024;8.630;2023-03-01T22:36:18;102747.75;;;3.14
27715;BMP280;16051;53.024;8.630;2023-03-01T22:40:23;102745.06;;;3.17
27715;BMP280;16051;53.024;8.630;2023-03-01T22:44:25;102745.34;;;3.09
27715;BMP280;16051;53.024;8.630;2023-03-01T22:48:27;102744.16;;;3.06
27715;BMP280;16051;53.024;8.630;2023-03-01T22:52:29;102738.25;;;3.04
27715;BMP280;16051;53.024;8.630;2023-03-01T22:56:35;102737.72;;;2.91
27715;BMP280;16051;53.024;8.630;2023-03-01T23:00:38;102736.13;;;2.90
27715;BMP280;16051;53.024;8.630;2023-03-01T23:04:40;102731.03;;;2.85
27715;BMP280;16051;53.024;8.630;2023-03-01T23:08:48;102735.81;;;2.66
27715;BMP280;16051;53.024;8.630;2023-03-01T23:12:53;102734.28;;;2.68
27715;BMP280;16051;53.024;8.630;2023-03-01T23:16:56;102748.91;;;2.83
27715;BMP280;16051;53.024;8.630;2023-03-01T23:21:00;102748.16;;;2.56
27715;BMP280;16051;53.024;8.630;2023-03-01T23:25:10;102756.53;;;2.44
27715;BMP280;16051;53.024;8.630;2023-03-01T23:29:14;102748.88;;;2.27
27715;BMP280;16051;53.024;8.630;2023-03-01T23:33:16;102748.97;;;2.34
27715;BMP280;16051;53.024;8.630;2023-03-01T23:37:21;102761.28;;;2.24
27715;BMP280;16051;53.024;8.630;2023-03-01T23:41:27;102751.88;;;2.22